sensor_id;sensor_type;location;lat;lon;timestamp;P1;durP1;ratioP1;P2;durP2;ratioP2
84353;SDS011;74538;43.522;1.516;2024-02-15T00:00:40;3.00;;;1.50;;
84353;SDS011;74538;43.522;1.516;2024-02-15T00:03:05;3.50;;;1.70;;
84353;SDS011;74538;43.522;1.516;2024-02-15T00:05:32;3.50;;;1.55;;
84353;SDS011;74538;43.522;1.516;2024-02-15T00:08:01;3.60;;;1.70;;
84353;SDS011;74538;43.522;1.516;2024-02-15T00:10:27;3.40;;;1.70;;
84353;SDS011;74538;43.522;1.516;2024-02-15T00:12:53;3.28;;;1.58;;
84353;SDS011;74538;43.522;1.516;2024-02-15T00:15:19;3.27;;;1.57;;
84353;SDS011;74538;43.522;1.516;2024-02-15T00:17:45;3.10;;;1.40;;
84353;SDS011;74538;43.522;1.516;2024-02-15T00:20:12;3.22;;;1.83;;
84353;SDS011;74538;43.522;1.516;2024-02-15T00:22:38;4.20;;;1.60;;
84353;SDS011;74538;43.522;1.516;2024-02-15T00:25:06;3.15;;;1.63;;
84353;SDS011;74538;43.522;1.516;2024-02-15T00:27:34;2.95;;;1.55;;
84353;SDS011;74538;43.522;1.516;2024-02-15T00:30:00;3.30;;;1.50;;
84353;SDS011;74538;43.522;1.516;2024-02-15T00:32:26;3.10;;;1.50;;
84353;SDS011;74538;43.522;1.516;2024-02-15T00:34:52;4.37;;;1.80;;
84353;SDS011;74538;43.522;1.516;2024-02-15T00:37:18;3.30;;;1.70;;
84353;SDS011;74538;43.522;1.516;2024-02-15T00:39:44;3.10;;;1.63;;
84353;SDS011;74538;43.522;1.516;2024-02-15T00:42:10;3.60;;;1.60;;
84353;SDS011;74538;43.522;1.516;2024-02-15T00:44:36;4.53;;;1.90;;
84353;SDS011;74538;43.522;1.516;2024-02-15T00:47:02;2.97;;;1.55;;
84353;SDS011;74538;43.522;1.516;2024-02-15T00:49:28;3.27;;;1.40;;
84353;SDS011;74538;43.522;1.516;2024-02-15T00:51:53;2.90;;;1.60;;
84353;SDS011;74538;43.522;1.516;2024-02-15T00:54:19;3.70;;;1.53;;
84353;SDS011;74538;43.522;1.516;2024-02-15T00:56:45;3.25;;;1.65;;
84353;SDS011;74538;43.522;1.516;2024-02-15T00:59:10;3.70;;;1.67;;
84353;SDS011;74538;43.522;1.516;2024-02-15T01:01:36;3.20;;;1.83;;
84353;SDS011;74538;43.522;1.516;2024-02-15T01:04:03;3.38;;;1.60;;
84353;SDS011;74538;43.522;1.516;2024-02-15T01:06:29;3.83;;;1.50;;
84353;SDS011;74538;43.522;1.516;2024-02-15T01:08:55;3.53;;;1.83;;
84353;SDS011;74538;43.522;1.516;2024-02-15T01:11:20;3.87;;;1.97;;
84353;SDS011;74538;43.522;1.516;2024-02-15T01:13:46;3.47;;;1.67;;
84353;SDS011;74538;43.522;1.516;2024-02-15T01:16:12;3.13;;;1.80;;
84353;SDS011;74538;43.522;1.516;2024-02-15T01:18:37;4.45;;;1.88;;
84353;SDS011;74538;43.522;1.516;2024-02-15T01:21:03;3.00;;;1.40;;
84353;SDS011;74538;43.522;1.516;2024-02-15T01:23:29;4.00;;;1.77;;
84353;SDS011;74538;43.522;1.516;2024-02-15T01:25:55;3.60;;;2.00;;
84353;SDS011;74538;43.522;1.516;2024-02-15T01:28:20;3.85;;;1.83;;
84353;SDS011;74538;43.522;1.516;2024-02-15T01:30:47;4.80;;;1.70;;
84353;SDS011;74538;43.522;1.516;2024-02-15T01:33:12;4.18;;;1.73;;
84353;SDS011;74538;43.522;1.516;2024-02-15T01:35:38;4.83;;;1.93;;
84353;SDS011;74538;43.522;1.516;2024-02-15T01:38:04;3.25;;;1.83;;
84353;SDS011;74538;43.522;1.516;2024-02-15T01:40:30;3.70;;;1.70;;
84353;SDS011;74538;43.522;1.516;2024-02-15T01:42:56;3.97;;;1.60;;
84353;SDS011;74538;43.522;1.516;2024-02-15T01:45:23;2.70;;;1.40;;
84353;SDS011;74538;43.522;1.516;2024-02-15T01:47:51;4.18;;;1.52;;
84353;SDS011;74538;43.522;1.516;2024-02-15T01:50:17;3.33;;;1.80;;
84353;SDS011;74538;43.522;1.516;2024-02-15T01:52:44;4.37;;;1.80;;
84353;SDS011;74538;43.522;1.516;2024-02-15T01:55:12;3.33;;;1.35;;
84353;SDS011;74538;43.522;1.516;2024-02-15T01:57:42;3.67;;;1.65;;
84353;SDS011;74538;43.522;1.516;2024-02-15T02:00:10;3.67;;;1.60;;
84353;SDS011;74538;43.522;1.516;2024-02-15T02:02:38;4.25;;;1.95;;
84353;SDS011;74538;43.522;1.516;2024-02-15T02:05:07;3.77;;;1.70;;
84353;SDS011;74538;43.522;1.516;2024-02-15T02:07:33;3.17;;;1.80;;
84353;SDS011;74538;43.522;1.516;2024-02-15T02:09:59;4.13;;;1.73;;
84353;SDS011;74538;43.522;1.516;2024-02-15T02:12:25;5.05;;;1.65;;
84353;SDS011;74538;43.522;1.516;2024-02-15T02:14:55;3.17;;;1.52;;
84353;SDS011;74538;43.522;1.516;2024-02-15T02:17:21;3.00;;;1.50;;
84353;SDS011;74538;43.522;1.516;2024-02-15T02:19:47;3.33;;;1.50;;
84353;SDS011;74538;43.522;1.516;2024-02-15T02:22:15;3.47;;;1.88;;
84353;SDS011;74538;43.522;1.516;2024-02-15T02:27:36;3.80;;;1.70;;
84353;SDS011;74538;43.522;1.516;2024-02-15T02:30:05;3.35;;;1.70;;
84353;SDS011;74538;43.522;1.516;2024-02-15T02:32:40;4.07;;;1.60;;
84353;SDS011;74538;43.522;1.516;2024-02-15T02:35:06;3.60;;;1.70;;
84353;SDS011;74538;43.522;1.516;2024-02-15T02:37:32;4.10;;;1.80;;
84353;SDS011;74538;43.522;1.516;2024-02-15T02:40:02;4.05;;;1.98;;
84353;SDS011;74538;43.522;1.516;2024-02-15T02:42:28;3.50;;;2.00;;
84353;SDS011;74538;43.522;1.516;2024-02-15T02:44:54;3.77;;;1.60;;
84353;SDS011;74538;43.522;1.516;2024-02-15T02:47:20;2.75;;;1.45;;
84353;SDS011;74538;43.522;1.516;2024-02-15T02:49:45;2.90;;;1.60;;
84353;SDS011;74538;43.522;1.516;2024-02-15T02:52:11;3.05;;;1.70;;
84353;SDS011;74538;43.522;1.516;2024-02-15T02:54:36;3.03;;;1.70;;
84353;SDS011;74538;43.522;1.516;2024-02-15T02:57:02;3.20;;;1.70;;
84353;SDS011;74538;43.522;1.516;2024-02-15T02:59:33;3.67;;;1.50;;
84353;SDS011;74538;43.522;1.516;2024-02-15T03:02:00;3.13;;;1.50;;
84353;SDS011;74538;43.522;1.516;2024-02-15T03:04:25;2.90;;;1.60;;
84353;SDS011;74538;43.522;1.516;2024-02-15T03:06:51;4.22;;;1.80;;
84353;SDS011;74538;43.522;1.516;2024-02-15T03:09:18;4.47;;;1.80;;
84353;SDS011;74538;43.522;1.516;2024-02-15T03:11:45;3.67;;;1.90;;
84353;SDS011;74538;43.522;1.516;2024-02-15T03:14:11;3.50;;;1.50;;
84353;SDS011;74538;43.522;1.516;2024-02-15T03:16:37;3.25;;;1.50;;
84353;SDS011;74538;43.522;1.516;2024-02-15T03:19:03;4.50;;;1.87;;
84353;SDS011;74538;43.522;1.516;2024-02-15T03:21:29;3.55;;;1.80;;
84353;SDS011;74538;43.522;1.516;2024-02-15T03:23:55;3.25;;;1.70;;
84353;SDS011;74538;43.522;1.516;2024-02-15T03:26:30;3.10;;;1.50;;
84353;SDS011;74538;43.522;1.516;2024-02-15T03:29:02;3.85;;;1.80;;
84353;SDS011;74538;43.522;1.516;2024-02-15T03:31:28;3.58;;;2.00;;
84353;SDS011;74538;43.522;1.516;2024-02-15T03:33:56;3.00;;;1.63;;
84353;SDS011;74538;43.522;1.516;2024-02-15T03:36:24;3.72;;;1.90;;
84353;SDS011;74538;43.522;1.516;2024-02-15T03:38:50;4.50;;;1.88;;
84353;SDS011;74538;43.522;1.516;2024-02-15T03:41:19;5.15;;;1.70;;
84353;SDS011;74538;43.522;1.516;2024-02-15T03:43:45;3.50;;;1.50;;
84353;SDS011;74538;43.522;1.516;2024-02-15T03:46:11;3.55;;;1.80;;
84353;SDS011;74538;43.522;1.516;2024-02-15T03:48:40;4.00;;;1.63;;
84353;SDS011;74538;43.522;1.516;2024-02-15T03:51:09;3.25;;;1.75;;
84353;SDS011;74538;43.522;1.516;2024-02-15T03:53:35;3.88;;;1.88;;
84353;SDS011;74538;43.522;1.516;2024-02-15T03:56:05;3.63;;;1.90;;
84353;SDS011;74538;43.522;1.516;2024-02-15T03:58:31;4.32;;;1.88;;
84353;SDS011;74538;43.522;1.516;2024-02-15T04:00:58;3.90;;;1.80;;
84353;SDS011;74538;43.522;1.516;2024-02-15T04:03:24;3.53;;;1.70;;
84353;SDS011;74538;43.522;1.516;2024-02-15T04:05:50;3.93;;;2.00;;
84353;SDS011;74538;43.522;1.516;2024-02-15T04:08:15;3.92;;;1.70;;
84353;SDS011;74538;43.522;1.516;2024-02-15T04:10:42;3.60;;;1.77;;
84353;SDS011;74538;43.522;1.516;2024-02-15T04:13:08;3.40;;;2.00;;
84353;SDS011;74538;43.522;1.516;2024-02-15T04:15:33;4.40;;;1.80;;
84353;SDS011;74538;43.522;1.516;2024-02-15T04:17:59;4.18;;;1.88;;
84353;SDS011;74538;43.522;1.516;2024-02-15T04:20:25;3.63;;;1.80;;
84353;SDS011;74538;43.522;1.516;2024-02-15T04:22:51;3.00;;;1.70;;
84353;SDS011;74538;43.522;1.516;2024-02-15T04:25:18;3.65;;;1.60;;
84353;SDS011;74538;43.522;1.516;2024-02-15T04:27:48;3.28;;;1.88;;
84353;SDS011;74538;43.522;1.516;2024-02-15T04:30:14;3.40;;;1.73;;
84353;SDS011;74538;43.522;1.516;2024-02-15T04:32:43;3.88;;;1.60;;
84353;SDS011;74538;43.522;1.516;2024-02-15T04:35:08;3.75;;;1.90;;
84353;SDS011;74538;43.522;1.516;2024-02-15T04:37:35;3.13;;;1.50;;
84353;SDS011;74538;43.522;1.516;2024-02-15T04:40:02;3.60;;;1.90;;
84353;SDS011;74538;43.522;1.516;2024-02-15T04:42:34;3.53;;;1.60;;
84353;SDS011;74538;43.522;1.516;2024-02-15T04:45:05;3.72;;;1.90;;
84353;SDS011;74538;43.522;1.516;2024-02-15T04:47:36;4.57;;;1.83;;
84353;SDS011;74538;43.522;1.516;2024-02-15T04:50:01;3.37;;;1.70;;
84353;SDS011;74538;43.522;1.516;2024-02-15T04:52:27;3.25;;;1.80;;
84353;SDS011;74538;43.522;1.516;2024-02-15T04:54:53;3.50;;;1.63;;
84353;SDS011;74538;43.522;1.516;2024-02-15T04:57:24;3.28;;;1.58;;
84353;SDS011;74538;43.522;1.516;2024-02-15T05:00:02;3.28;;;1.83;;
84353;SDS011;74538;43.522;1.516;2024-02-15T05:02:35;3.17;;;1.65;;
84353;SDS011;74538;43.522;1.516;2024-02-15T05:05:06;4.57;;;1.60;;
84353;SDS011;74538;43.522;1.516;2024-02-15T05:07:35;3.87;;;1.80;;
84353;SDS011;74538;43.522;1.516;2024-02-15T05:10:05;3.40;;;1.83;;
84353;SDS011;74538;43.522;1.516;2024-02-15T05:12:32;3.42;;;1.80;;
84353;SDS011;74538;43.522;1.516;2024-02-15T05:14:58;3.20;;;1.70;;
84353;SDS011;74538;43.522;1.516;2024-02-15T05:17:24;3.55;;;1.63;;
84353;SDS011;74538;43.522;1.516;2024-02-15T05:19:50;3.00;;;1.67;;
84353;SDS011;74538;43.522;1.516;2024-02-15T05:22:16;4.00;;;1.90;;
84353;SDS011;74538;43.522;1.516;2024-02-15T05:24:43;4.90;;;1.70;;
84353;SDS011;74538;43.522;1.516;2024-02-15T05:27:09;3.58;;;1.95;;
84353;SDS011;74538;43.522;1.516;2024-02-15T05:29:34;3.50;;;1.77;;
84353;SDS011;74538;43.522;1.516;2024-02-15T05:32:01;3.45;;;1.60;;
84353;SDS011;74538;43.522;1.516;2024-02-15T05:34:27;3.70;;;1.80;;
84353;SDS011;74538;43.522;1.516;2024-02-15T05:36:54;4.75;;;1.75;;
84353;SDS011;74538;43.522;1.516;2024-02-15T05:39:20;3.83;;;1.60;;
84353;SDS011;74538;43.522;1.516;2024-02-15T05:41:47;3.53;;;1.65;;
84353;SDS011;74538;43.522;1.516;2024-02-15T05:44:13;3.50;;;1.40;;
84353;SDS011;74538;43.522;1.516;2024-02-15T05:46:44;4.60;;;1.70;;
84353;SDS011;74538;43.522;1.516;2024-02-15T05:49:10;3.20;;;1.85;;
84353;SDS011;74538;43.522;1.516;2024-02-15T05:51:40;3.83;;;1.53;;
84353;SDS011;74538;43.522;1.516;2024-02-15T05:54:06;4.03;;;1.83;;
84353;SDS011;74538;43.522;1.516;2024-02-15T05:56:32;3.28;;;1.52;;
84353;SDS011;74538;43.522;1.516;2024-02-15T05:58:58;3.93;;;1.47;;
84353;SDS011;74538;43.522;1.516;2024-02-15T06:01:23;3.17;;;1.40;;
84353;SDS011;74538;43.522;1.516;2024-02-15T06:03:49;3.30;;;1.50;;
84353;SDS011;74538;43.522;1.516;2024-02-15T06:06:19;3.47;;;1.60;;
84353;SDS011;74538;43.522;1.516;2024-02-15T06:08:46;3.30;;;1.70;;
84353;SDS011;74538;43.522;1.516;2024-02-15T06:11:12;3.28;;;1.77;;
84353;SDS011;74538;43.522;1.516;2024-02-15T06:13:39;3.50;;;1.60;;
84353;SDS011;74538;43.522;1.516;2024-02-15T06:16:06;3.30;;;1.70;;
84353;SDS011;74538;43.522;1.516;2024-02-15T06:18:34;3.35;;;1.60;;
84353;SDS011;74538;43.522;1.516;2024-02-15T06:21:00;2.93;;;1.53;;
84353;SDS011;74538;43.522;1.516;2024-02-15T06:23:27;3.47;;;1.30;;
84353;SDS011;74538;43.522;1.516;2024-02-15T06:25:53;2.70;;;1.30;;
84353;SDS011;74538;43.522;1.516;2024-02-15T06:28:21;2.65;;;1.30;;
84353;SDS011;74538;43.522;1.516;2024-02-15T06:31:08;2.97;;;1.33;;
84353;SDS011;74538;43.522;1.516;2024-02-15T06:33:53;2.70;;;1.13;;
84353;SDS011;74538;43.522;1.516;2024-02-15T06:39:30;3.70;;;1.60;;
84353;SDS011;74538;43.522;1.516;2024-02-15T06:42:13;2.70;;;1.30;;
84353;SDS011;74538;43.522;1.516;2024-02-15T06:44:42;3.25;;;1.23;;
84353;SDS011;74538;43.522;1.516;2024-02-15T06:47:12;2.87;;;1.30;;
84353;SDS011;74538;43.522;1.516;2024-02-15T06:49:38;3.22;;;1.30;;
84353;SDS011;74538;43.522;1.516;2024-02-15T06:52:09;4.13;;;1.48;;
84353;SDS011;74538;43.522;1.516;2024-02-15T06:54:39;2.85;;;1.30;;
84353;SDS011;74538;43.522;1.516;2024-02-15T06:57:05;2.50;;;1.17;;
84353;SDS011;74538;43.522;1.516;2024-02-15T06:59:31;2.47;;;1.30;;
84353;SDS011;74538;43.522;1.516;2024-02-15T07:01:58;2.75;;;1.33;;
84353;SDS011;74538;43.522;1.516;2024-02-15T07:04:24;3.47;;;1.58;;
84353;SDS011;74538;43.522;1.516;2024-02-15T07:06:52;2.58;;;1.27;;
84353;SDS011;74538;43.522;1.516;2024-02-15T07:09:19;3.00;;;1.30;;
84353;SDS011;74538;43.522;1.516;2024-02-15T07:11:46;2.63;;;1.10;;
84353;SDS011;74538;43.522;1.516;2024-02-15T07:14:12;2.70;;;1.20;;
84353;SDS011;74538;43.522;1.516;2024-02-15T07:16:38;2.92;;;1.30;;
84353;SDS011;74538;43.522;1.516;2024-02-15T07:19:05;2.38;;;1.05;;
84353;SDS011;74538;43.522;1.516;2024-02-15T07:21:31;2.90;;;1.40;;
84353;SDS011;74538;43.522;1.516;2024-02-15T07:23:57;3.22;;;1.60;;
84353;SDS011;74538;43.522;1.516;2024-02-15T07:26:24;2.75;;;1.35;;
84353;SDS011;74538;43.522;1.516;2024-02-15T07:28:53;2.60;;;1.30;;
84353;SDS011;74538;43.522;1.516;2024-02-15T07:31:22;2.93;;;1.37;;
84353;SDS011;74538;43.522;1.516;2024-02-15T07:33:52;2.83;;;1.10;;
84353;SDS011;74538;43.522;1.516;2024-02-15T07:36:19;3.00;;;1.23;;
84353;SDS011;74538;43.522;1.516;2024-02-15T07:38:48;2.35;;;1.02;;
84353;SDS011;74538;43.522;1.516;2024-02-15T07:41:18;2.20;;;1.00;;
84353;SDS011;74538;43.522;1.516;2024-02-15T07:43:47;2.40;;;1.08;;
84353;SDS011;74538;43.522;1.516;2024-02-15T07:46:17;2.85;;;1.25;;
84353;SDS011;74538;43.522;1.516;2024-02-15T07:48:43;3.08;;;1.27;;
84353;SDS011;74538;43.522;1.516;2024-02-15T07:51:17;2.33;;;1.00;;
84353;SDS011;74538;43.522;1.516;2024-02-15T07:53:43;2.45;;;1.23;;
84353;SDS011;74538;43.522;1.516;2024-02-15T07:56:09;2.55;;;1.20;;
84353;SDS011;74538;43.522;1.516;2024-02-15T07:58:42;2.92;;;1.30;;
84353;SDS011;74538;43.522;1.516;2024-02-15T08:01:17;3.17;;;1.58;;
84353;SDS011;74538;43.522;1.516;2024-02-15T08:03:44;3.27;;;1.37;;
84353;SDS011;74538;43.522;1.516;2024-02-15T08:06:13;2.75;;;1.17;;
84353;SDS011;74538;43.522;1.516;2024-02-15T08:08:43;2.35;;;1.10;;
84353;SDS011;74538;43.522;1.516;2024-02-15T08:11:13;2.72;;;1.30;;
84353;SDS011;74538;43.522;1.516;2024-02-15T08:13:46;2.92;;;1.10;;
84353;SDS011;74538;43.522;1.516;2024-02-15T08:16:17;2.47;;;1.17;;
84353;SDS011;74538;43.522;1.516;2024-02-15T08:18:44;2.80;;;1.10;;
84353;SDS011;74538;43.522;1.516;2024-02-15T08:21:11;2.80;;;1.25;;
84353;SDS011;74538;43.522;1.516;2024-02-15T08:23:37;2.50;;;1.00;;
84353;SDS011;74538;43.522;1.516;2024-02-15T08:26:03;2.40;;;1.20;;
84353;SDS011;74538;43.522;1.516;2024-02-15T08:28:29;2.70;;;1.10;;
84353;SDS011;74538;43.522;1.516;2024-02-15T08:30:55;2.10;;;0.80;;
84353;SDS011;74538;43.522;1.516;2024-02-15T08:33:24;2.87;;;1.10;;
84353;SDS011;74538;43.522;1.516;2024-02-15T08:35:51;2.10;;;0.90;;
84353;SDS011;74538;43.522;1.516;2024-02-15T08:38:20;2.85;;;1.23;;
84353;SDS011;74538;43.522;1.516;2024-02-15T08:40:48;2.65;;;1.15;;
84353;SDS011;74538;43.522;1.516;2024-02-15T08:43:14;2.40;;;1.20;;
84353;SDS011;74538;43.522;1.516;2024-02-15T08:45:43;2.38;;;1.08;;
84353;SDS011;74538;43.522;1.516;2024-02-15T08:48:10;2.50;;;1.10;;
84353;SDS011;74538;43.522;1.516;2024-02-15T08:50:36;2.40;;;1.13;;
84353;SDS011;74538;43.522;1.516;2024-02-15T08:53:01;2.10;;;1.00;;
84353;SDS011;74538;43.522;1.516;2024-02-15T08:55:31;2.78;;;1.48;;
84353;SDS011;74538;43.522;1.516;2024-02-15T08:57:57;3.03;;;1.20;;
84353;SDS011;74538;43.522;1.516;2024-02-15T09:00:24;2.60;;;1.20;;
84353;SDS011;74538;43.522;1.516;2024-02-15T09:02:51;2.40;;;1.02;;
84353;SDS011;74538;43.522;1.516;2024-02-15T09:05:18;3.55;;;1.42;;
84353;SDS011;74538;43.522;1.516;2024-02-15T09:07:44;2.30;;;1.00;;
84353;SDS011;74538;43.522;1.516;2024-02-15T09:10:13;2.65;;;1.10;;
84353;SDS011;74538;43.522;1.516;2024-02-15T09:12:40;2.67;;;1.13;;
84353;SDS011;74538;43.522;1.516;2024-02-15T09:15:07;2.50;;;1.02;;
84353;SDS011;74538;43.522;1.516;2024-02-15T09:17:37;2.50;;;1.20;;
84353;SDS011;74538;43.522;1.516;2024-02-15T09:20:09;2.80;;;1.30;;
84353;SDS011;74538;43.522;1.516;2024-02-15T09:22:49;2.85;;;1.00;;
84353;SDS011;74538;43.522;1.516;2024-02-15T09:25:16;2.88;;;1.30;;
84353;SDS011;74538;43.522;1.516;2024-02-15T09:27:43;2.65;;;1.10;;
84353;SDS011;74538;43.522;1.516;2024-02-15T09:30:09;2.38;;;1.20;;
84353;SDS011;74538;43.522;1.516;2024-02-15T09:32:36;3.00;;;1.13;;
84353;SDS011;74538;43.522;1.516;2024-02-15T09:35:02;2.30;;;1.00;;
84353;SDS011;74538;43.522;1.516;2024-02-15T09:37:32;2.40;;;1.13;;
84353;SDS011;74538;43.522;1.516;2024-02-15T09:39:59;2.22;;;1.13;;
84353;SDS011;74538;43.522;1.516;2024-02-15T09:42:29;2.60;;;1.30;;
84353;SDS011;74538;43.522;1.516;2024-02-15T09:44:55;2.30;;;1.10;;
84353;SDS011;74538;43.522;1.516;2024-02-15T09:47:20;3.10;;;1.40;;
84353;SDS011;74538;43.522;1.516;2024-02-15T09:49:48;2.57;;;1.10;;
84353;SDS011;74538;43.522;1.516;2024-02-15T09:52:14;2.40;;;1.10;;
84353;SDS011;74538;43.522;1.516;2024-02-15T09:54:43;2.55;;;1.10;;
84353;SDS011;74538;43.522;1.516;2024-02-15T09:57:09;2.50;;;1.25;;
84353;SDS011;74538;43.522;1.516;2024-02-15T09:59:36;2.70;;;1.20;;
84353;SDS011;74538;43.522;1.516;2024-02-15T10:02:03;3.13;;;1.40;;
84353;SDS011;74538;43.522;1.516;2024-02-15T10:04:29;2.92;;;1.00;;
84353;SDS011;74538;43.522;1.516;2024-02-15T10:06:54;2.30;;;1.10;;
84353;SDS011;74538;43.522;1.516;2024-02-15T10:09:23;2.80;;;1.17;;
84353;SDS011;74538;43.522;1.516;2024-02-15T10:11:53;2.83;;;1.15;;
84353;SDS011;74538;43.522;1.516;2024-02-15T10:14:21;2.60;;;1.10;;
84353;SDS011;74538;43.522;1.516;2024-02-15T10:16:47;2.60;;;1.20;;
84353;SDS011;74538;43.522;1.516;2024-02-15T10:19:13;2.50;;;1.17;;
84353;SDS011;74538;43.522;1.516;2024-02-15T10:21:40;2.47;;;1.10;;
84353;SDS011;74538;43.522;1.516;2024-02-15T10:24:06;3.30;;;1.27;;
84353;SDS011;74538;43.522;1.516;2024-02-15T10:26:33;2.50;;;1.07;;
84353;SDS011;74538;43.522;1.516;2024-02-15T10:29:06;2.40;;;1.10;;
84353;SDS011;74538;43.522;1.516;2024-02-15T10:31:36;3.45;;;1.45;;
84353;SDS011;74538;43.522;1.516;2024-02-15T10:34:06;2.50;;;1.10;;
84353;SDS011;74538;43.522;1.516;2024-02-15T10:36:33;2.92;;;1.33;;
84353;SDS011;74538;43.522;1.516;2024-02-15T10:39:12;2.93;;;1.20;;
84353;SDS011;74538;43.522;1.516;2024-02-15T10:41:45;2.90;;;1.55;;
84353;SDS011;74538;43.522;1.516;2024-02-15T10:44:18;2.90;;;1.40;;
84353;SDS011;74538;43.522;1.516;2024-02-15T10:46:46;2.83;;;1.30;;
84353;SDS011;74538;43.522;1.516;2024-02-15T10:51:44;2.73;;;1.00;;
84353;SDS011;74538;43.522;1.516;2024-02-15T10:54:13;3.67;;;1.30;;
84353;SDS011;74538;43.522;1.516;2024-02-15T10:56:45;3.03;;;1.58;;
84353;SDS011;74538;43.522;1.516;2024-02-15T10:59:21;3.50;;;1.23;;
84353;SDS011;74538;43.522;1.516;2024-02-15T11:01:53;2.83;;;1.30;;
84353;SDS011;74538;43.522;1.516;2024-02-15T11:04:24;4.87;;;1.40;;
84353;SDS011;74538;43.522;1.516;2024-02-15T11:06:57;3.15;;;1.50;;
84353;SDS011;74538;43.522;1.516;2024-02-15T11:09:25;3.70;;;1.60;;
84353;SDS011;74538;43.522;1.516;2024-02-15T11:11:53;3.65;;;1.42;;
84353;SDS011;74538;43.522;1.516;2024-02-15T11:14:27;3.40;;;1.42;;
84353;SDS011;74538;43.522;1.516;2024-02-15T11:16:59;3.00;;;1.43;;
84353;SDS011;74538;43.522;1.516;2024-02-15T11:22:08;4.05;;;1.48;;
84353;SDS011;74538;43.522;1.516;2024-02-15T11:24:36;2.95;;;1.10;;
84353;SDS011;74538;43.522;1.516;2024-02-15T11:27:10;2.83;;;1.50;;
84353;SDS011;74538;43.522;1.516;2024-02-15T11:29:51;2.80;;;1.30;;
84353;SDS011;74538;43.522;1.516;2024-02-15T11:35:14;3.25;;;1.33;;
84353;SDS011;74538;43.522;1.516;2024-02-15T11:37:51;3.20;;;1.35;;
84353;SDS011;74538;43.522;1.516;2024-02-15T11:43:10;3.63;;;1.47;;
84353;SDS011;74538;43.522;1.516;2024-02-15T11:45:58;5.72;;;1.50;;
84353;SDS011;74538;43.522;1.516;2024-02-15T11:48:25;4.22;;;1.17;;
84353;SDS011;74538;43.522;1.516;2024-02-15T11:50:51;2.80;;;1.23;;
84353;SDS011;74538;43.522;1.516;2024-02-15T11:53:17;3.20;;;1.60;;
84353;SDS011;74538;43.522;1.516;2024-02-15T11:55:43;2.78;;;1.20;;
84353;SDS011;74538;43.522;1.516;2024-02-15T11:58:10;3.37;;;1.50;;
84353;SDS011;74538;43.522;1.516;2024-02-15T12:00:36;3.28;;;1.60;;
84353;SDS011;74538;43.522;1.516;2024-02-15T12:03:21;3.20;;;1.40;;
84353;SDS011;74538;43.522;1.516;2024-02-15T12:06:06;3.30;;;1.60;;
84353;SDS011;74538;43.522;1.516;2024-02-15T12:08:53;3.33;;;1.40;;
84353;SDS011;74538;43.522;1.516;2024-02-15T12:11:38;3.63;;;1.48;;
84353;SDS011;74538;43.522;1.516;2024-02-15T12:14:23;2.70;;;1.42;;
84353;SDS011;74538;43.522;1.516;2024-02-15T12:17:08;2.88;;;1.38;;
84353;SDS011;74538;43.522;1.516;2024-02-15T12:19:54;3.40;;;1.67;;
84353;SDS011;74538;43.522;1.516;2024-02-15T12:22:28;3.33;;;1.40;;
84353;SDS011;74538;43.522;1.516;2024-02-15T12:25:00;3.55;;;1.17;;
84353;SDS011;74538;43.522;1.516;2024-02-15T12:27:27;3.50;;;1.45;;
84353;SDS011;74538;43.522;1.516;2024-02-15T12:29:56;2.65;;;1.00;;
84353;SDS011;74538;43.522;1.516;2024-02-15T12:32:23;3.00;;;1.50;;
84353;SDS011;74538;43.522;1.516;2024-02-15T12:34:50;2.90;;;1.27;;
84353;SDS011;74538;43.522;1.516;2024-02-15T12:37:19;3.10;;;1.50;;
84353;SDS011;74538;43.522;1.516;2024-02-15T12:39:46;3.35;;;1.50;;
84353;SDS011;74538;43.522;1.516;2024-02-15T12:42:13;3.25;;;1.20;;
84353;SDS011;74538;43.522;1.516;2024-02-15T12:44:46;5.50;;;1.40;;
84353;SDS011;74538;43.522;1.516;2024-02-15T12:47:19;3.47;;;1.30;;
84353;SDS011;74538;43.522;1.516;2024-02-15T12:49:47;2.92;;;1.30;;
84353;SDS011;74538;43.522;1.516;2024-02-15T12:55:12;2.60;;;1.20;;
84353;SDS011;74538;43.522;1.516;2024-02-15T12:57:47;2.83;;;1.45;;
84353;SDS011;74538;43.522;1.516;2024-02-15T13:00:23;2.53;;;1.40;;
84353;SDS011;74538;43.522;1.516;2024-02-15T13:03:04;3.55;;;1.60;;
84353;SDS011;74538;43.522;1.516;2024-02-15T13:05:34;2.72;;;1.30;;
84353;SDS011;74538;43.522;1.516;2024-02-15T13:08:01;3.00;;;1.40;;
84353;SDS011;74538;43.522;1.516;2024-02-15T13:10:28;3.35;;;1.10;;
84353;SDS011;74538;43.522;1.516;2024-02-15T13:12:55;2.95;;;1.40;;
84353;SDS011;74538;43.522;1.516;2024-02-15T13:15:21;2.90;;;1.40;;
84353;SDS011;74538;43.522;1.516;2024-02-15T13:17:52;2.80;;;1.33;;
84353;SDS011;74538;43.522;1.516;2024-02-15T13:20:19;3.77;;;1.17;;
84353;SDS011;74538;43.522;1.516;2024-02-15T13:22:52;2.80;;;1.52;;
84353;SDS011;74538;43.522;1.516;2024-02-15T13:25:19;3.22;;;1.42;;
84353;SDS011;74538;43.522;1.516;2024-02-15T13:27:46;2.65;;;1.05;;
84353;SDS011;74538;43.522;1.516;2024-02-15T13:30:12;3.15;;;1.23;;
84353;SDS011;74538;43.522;1.516;2024-02-15T13:32:46;2.70;;;1.10;;
84353;SDS011;74538;43.522;1.516;2024-02-15T13:35:11;2.92;;;1.20;;
84353;SDS011;74538;43.522;1.516;2024-02-15T13:37:41;2.53;;;1.38;;
84353;SDS011;74538;43.522;1.516;2024-02-15T13:40:11;2.60;;;1.20;;
84353;SDS011;74538;43.522;1.516;2024-02-15T13:42:48;3.00;;;1.23;;
84353;SDS011;74538;43.522;1.516;2024-02-15T13:48:05;3.33;;;1.23;;
84353;SDS011;74538;43.522;1.516;2024-02-15T13:50:35;2.72;;;1.38;;
84353;SDS011;74538;43.522;1.516;2024-02-15T13:53:02;4.33;;;1.10;;
84353;SDS011;74538;43.522;1.516;2024-02-15T13:55:28;3.20;;;1.20;;
84353;SDS011;74538;43.522;1.516;2024-02-15T13:57:54;3.20;;;1.15;;
84353;SDS011;74538;43.522;1.516;2024-02-15T14:00:21;4.00;;;1.35;;
84353;SDS011;74538;43.522;1.516;2024-02-15T14:02:51;3.20;;;0.93;;
84353;SDS011;74538;43.522;1.516;2024-02-15T14:05:18;5.65;;;1.20;;
84353;SDS011;74538;43.522;1.516;2024-02-15T14:07:48;7.72;;;1.27;;
84353;SDS011;74538;43.522;1.516;2024-02-15T14:10:15;2.78;;;1.27;;
84353;SDS011;74538;43.522;1.516;2024-02-15T14:12:43;2.80;;;1.20;;
84353;SDS011;74538;43.522;1.516;2024-02-15T14:15:10;4.27;;;1.50;;
84353;SDS011;74538;43.522;1.516;2024-02-15T14:17:37;5.05;;;1.20;;
84353;SDS011;74538;43.522;1.516;2024-02-15T14:20:03;3.08;;;1.33;;
84353;SDS011;74538;43.522;1.516;2024-02-15T14:22:34;2.67;;;1.05;;
84353;SDS011;74538;43.522;1.516;2024-02-15T14:25:00;3.30;;;1.10;;
84353;SDS011;74538;43.522;1.516;2024-02-15T14:27:26;3.13;;;1.27;;
84353;SDS011;74538;43.522;1.516;2024-02-15T14:29:52;3.10;;;1.20;;
84353;SDS011;74538;43.522;1.516;2024-02-15T14:32:36;4.45;;;1.67;;
84353;SDS011;74538;43.522;1.516;2024-02-15T14:35:20;8.70;;;1.33;;
84353;SDS011;74538;43.522;1.516;2024-02-15T14:37:46;3.97;;;1.40;;
84353;SDS011;74538;43.522;1.516;2024-02-15T14:40:12;3.17;;;1.40;;
84353;SDS011;74538;43.522;1.516;2024-02-15T14:42:42;3.03;;;1.17;;
84353;SDS011;74538;43.522;1.516;2024-02-15T14:45:09;2.67;;;1.20;;
84353;SDS011;74538;43.522;1.516;2024-02-15T14:47:36;2.90;;;1.33;;
84353;SDS011;74538;43.522;1.516;2024-02-15T14:50:03;2.92;;;1.23;;
84353;SDS011;74538;43.522;1.516;2024-02-15T14:52:33;2.67;;;1.20;;
84353;SDS011;74538;43.522;1.516;2024-02-15T14:55:04;2.85;;;1.05;;
84353;SDS011;74538;43.522;1.516;2024-02-15T14:57:32;3.45;;;1.42;;
84353;SDS011;74538;43.522;1.516;2024-02-15T14:59:59;3.63;;;1.20;;
84353;SDS011;74538;43.522;1.516;2024-02-15T15:02:25;4.32;;;1.30;;
84353;SDS011;74538;43.522;1.516;2024-02-15T15:04:50;2.87;;;1.20;;
84353;SDS011;74538;43.522;1.516;2024-02-15T15:07:45;3.25;;;1.27;;
84353;SDS011;74538;43.522;1.516;2024-02-15T15:10:29;3.15;;;1.23;;
84353;SDS011;74538;43.522;1.516;2024-02-15T15:13:13;3.75;;;1.38;;
84353;SDS011;74538;43.522;1.516;2024-02-15T15:15:39;4.80;;;1.23;;
84353;SDS011;74538;43.522;1.516;2024-02-15T15:18:05;2.63;;;0.97;;